Current Weather

Chandler Muni

Chandler, Arizona (KCHD)

Report from: Sunday, June 26, 2022 8:47 AM MST
Current time: Sunday, June 26, 2022 10:02 AM MST

Nearby weather
Weather history
Weather forecast

Temperature35.0°C (95.0°F)
Heat index35.2°C (95.4°F)
Dew point16.0°C (60.8°F)
Winds 8 kts (4.1 m/s, 9.2 mph) East (90°)
Visibility10 mi. (16.1 km)
Clouds Sky clear
Altimeter30.01 in.Hg (1016 mB)
Relative humidity32 %
Density altitude2,420 ft. (738 m)
Flight conditions Visual Meteorological Conditions
Raw dataKCHD 261547Z 09008KT 10SM CLR 35/16 A3001
An error has occurred. This application may no longer respond until reloaded. Reload 🗙